Time;durP1;ratioP1;P1;durP2;ratioP2;P2;SDS_P1;SDS_P2;PMS_P1;PMS_P2;Temp;Humidity;BMP_temperature;BMP_pressure;BME280_temperature;BME280_humidity;BME280_pressure;Samples;Min_cycle;Max_cycle;Signal;HPM_P1;HPM_P2
2022/04/14 00:01:44;;;;;;;11.77;3.58;;;;;;;16.28;49.72;98866.16;5095035;28;20393;-50
2022/04/14 00:04:10;;;;;;;13.13;3.75;;;;;;;16.20;49.86;98861.22;5095156;28;20103;-51
2022/04/14 00:06:35;;;;;;;11.63;3.30;;;;;;;16.12;50.10;98863.19;5094937;28;20016;-50
2022/04/14 00:09:02;;;;;;;12.75;3.35;;;;;;;16.09;50.45;98853.06;5093687;28;20035;-50
2022/04/14 00:11:28;;;;;;;12.30;3.45;;;;;;;16.12;50.42;98863.19;5094918;28;20016;-50
2022/04/14 00:13:53;;;;;;;10.52;3.20;;;;;;;16.12;50.34;98849.97;5094889;28;20405;-50
2022/04/14 00:16:19;;;;;;;10.75;3.58;;;;;;;16.11;50.45;98855.47;5094849;28;20020;-50
2022/04/14 00:18:45;;;;;;;18.80;4.75;;;;;;;16.08;50.54;98859.41;5093500;28;20031;-50
2022/04/14 00:21:11;;;;;;;11.57;3.83;;;;;;;15.97;50.48;98860.22;5094627;28;20024;-50
2022/04/14 00:23:36;;;;;;;8.60;3.38;;;;;;;15.85;50.90;98859.41;5093257;28;20024;-50
2022/04/14 00:26:02;;;;;;;13.23;3.47;;;;;;;15.72;50.95;98863.88;5094669;28;20040;-50
2022/04/14 00:28:28;;;;;;;9.90;3.80;;;;;;;15.60;51.31;98860.41;5093283;28;20054;-50
2022/04/14 00:30:53;;;;;;;14.73;4.53;;;;;;;15.43;50.95;98864.75;5094569;28;20287;-50
2022/04/14 00:33:19;;;;;;;13.52;5.80;;;;;;;15.06;51.44;98863.03;5092956;28;20047;-50
2022/04/14 00:35:45;;;;;;;14.82;4.20;;;;;;;14.67;52.89;98867.81;5094420;28;20036;-50
2022/04/14 00:38:11;;;;;;;14.05;4.00;;;;;;;14.39;54.05;98874.41;5094465;28;20028;-50
2022/04/14 00:40:36;;;;;;;10.43;5.03;;;;;;;14.22;54.22;98870.72;5094272;28;20498;-50
2022/04/14 00:43:02;;;;;;;7.80;3.83;;;;;;;14.15;54.20;98873.44;5093001;28;20047;-50
2022/04/14 00:45:28;;;;;;;10.57;5.07;;;;;;;13.91;54.66;98872.47;5093001;28;20024;-50
2022/04/14 00:47:54;;;;;;;11.27;4.28;;;;;;;13.57;55.79;98877.22;5092951;28;20462;-51
2022/04/14 00:50:20;;;;;;;9.20;4.15;;;;;;;13.45;56.34;98880.75;5094177;28;20494;-51
2022/04/14 00:52:47;;;;;;;12.07;4.70;;;;;;;13.45;56.68;98880.75;5092875;28;20027;-50
2022/04/14 00:55:14;;;;;;;14.80;3.63;;;;;;;13.53;57.07;98880.50;5092761;28;20425;-50
2022/04/14 00:57:39;;;;;;;11.90;4.20;;;;;;;13.60;57.04;98883.88;5092696;28;20550;-50
2022/04/14 01:00:06;;;;;;;16.77;3.90;;;;;;;13.55;56.77;98887.16;5094042;28;20028;-50
2022/04/14 01:02:33;;;;;;;18.20;5.38;;;;;;;13.39;56.85;98885.84;5092596;28;20408;-50
2022/04/14 01:04:59;;;;;;;11.98;4.63;;;;;;;13.37;57.15;98882.63;5093901;28;20028;-50
2022/04/14 01:07:25;;;;;;;8.73;3.55;;;;;;;13.37;57.22;98895.81;5093799;28;20024;-50
2022/04/14 01:09:53;;;;;;;11.93;3.92;;;;;;;13.35;57.25;98892.56;5093865;28;20044;-50
2022/04/14 01:12:19;;;;;;;13.32;5.47;;;;;;;13.33;57.48;98893.81;5093830;28;20043;-50
2022/04/14 01:14:45;;;;;;;10.50;3.50;;;;;;;13.34;57.71;98896.25;5093721;28;20560;-50
2022/04/14 01:17:11;;;;;;;18.40;4.68;;;;;;;13.41;57.75;98893.56;5093720;28;20031;-50
2022/04/14 01:19:38;;;;;;;8.63;4.03;;;;;;;13.51;57.51;98893.88;5093656;28;20029;-50
2022/04/14 01:22:25;;;;;;;9.25;3.63;;;;;;;13.57;57.81;98894.88;5092206;28;20047;-50
2022/04/14 01:24:57;;;;;;;13.88;4.22;;;;;;;13.62;57.62;98902.13;5092339;28;20477;-51
2022/04/14 01:27:26;;;;;;;13.00;3.88;;;;;;;13.72;57.54;98907.72;5093537;28;20544;-50
2022/04/14 01:29:52;;;;;;;9.20;4.40;;;;;;;13.77;57.40;98906.06;5093497;28;20031;-50
2022/04/14 01:32:22;;;;;;;8.95;3.53;;;;;;;13.85;57.92;98897.06;5093459;28;20016;-51
2022/04/14 01:34:50;;;;;;;15.25;4.20;;;;;;;14.11;57.37;98901.31;5093106;28;20509;-50
2022/04/14 01:37:15;;;;;;;16.00;3.60;;;;;;;14.26;56.79;98911.50;5093021;28;20028;-50
2022/04/14 01:39:41;;;;;;;17.50;3.92;;;;;;;14.46;57.08;98913.13;5093289;28;20521;-50
2022/04/14 01:42:07;;;;;;;15.10;3.90;;;;;;;14.62;56.63;98906.50;5093115;28;20024;-50
2022/04/14 01:44:33;;;;;;;15.48;5.53;;;;;;;14.73;56.19;98914.50;5091864;28;20398;-50
2022/04/14 01:46:59;;;;;;;10.30;3.83;;;;;;;14.81;56.14;98916.03;5093132;28;20020;-50
2022/04/14 01:49:25;;;;;;;15.07;3.88;;;;;;;14.88;55.97;98911.44;5093038;28;20020;-50
2022/04/14 01:51:50;;;;;;;16.70;4.40;;;;;;;15.01;55.86;98909.66;5093012;28;20405;-50
2022/04/14 01:54:17;;;;;;;13.25;3.58;;;;;;;15.16;55.44;98910.88;5091689;28;20080;-50
2022/04/14 01:56:44;;;;;;;15.30;3.80;;;;;;;15.36;54.96;98913.25;5092911;28;20027;-50
2022/04/14 01:59:10;;;;;;;10.10;3.03;;;;;;;15.53;54.72;98913.41;5092890;28;20023;-50
2022/04/14 02:01:36;;;;;;;13.43;3.78;;;;;;;15.65;54.21;98910.78;5092732;28;20043;-50
2022/04/14 02:04:07;;;;;;;7.20;3.05;;;;;;;15.68;54.24;98912.19;5092851;28;20541;-50
2022/04/14 02:06:33;;;;;;;12.20;3.10;;;;;;;15.70;54.05;98910.91;5092792;28;20115;-50
2022/04/14 02:08:59;;;;;;;9.70;3.67;;;;;;;15.71;53.93;98906.41;5092677;28;20031;-50
2022/04/14 02:11:24;;;;;;;10.48;2.95;;;;;;;15.70;53.92;98910.13;5091333;28;20501;-50
2022/04/14 02:13:50;;;;;;;13.07;3.60;;;;;;;15.66;53.85;98908.97;5092654;28;20024;-50
2022/04/14 02:16:16;;;;;;;9.25;3.10;;;;;;;15.54;53.68;98912.38;5092521;28;20016;-50
2022/04/14 02:18:42;;;;;;;8.40;3.35;;;;;;;15.30;54.10;98913.34;5091170;28;20036;-50
2022/04/14 02:21:08;;;;;;;16.17;3.80;;;;;;;15.19;54.52;98912.25;5092417;28;20021;-50
2022/04/14 02:23:34;;;;;;;25.70;5.03;;;;;;;15.16;55.00;98910.09;5091079;28;20023;-50
2022/04/14 02:26:00;;;;;;;13.98;4.05;;;;;;;15.15;55.00;98906.63;5092431;28;20093;-50
2022/04/14 02:28:26;;;;;;;7.25;2.92;;;;;;;15.09;55.08;98904.91;5092370;28;20494;-50
2022/04/14 02:30:51;;;;;;;9.80;3.85;;;;;;;14.90;55.41;98905.94;5090987;28;20040;-49
2022/04/14 02:33:17;;;;;;;8.02;4.00;;;;;;;14.83;55.82;98913.97;5091935;28;20051;-50
2022/04/14 02:35:43;;;;;;;11.57;3.90;;;;;;;14.74;56.03;98917.94;5092311;28;20031;-50
2022/04/14 02:38:10;;;;;;;11.77;3.50;;;;;;;14.68;56.42;98916.97;5092254;28;20094;-51
2022/04/14 02:40:35;;;;;;;10.40;3.70;;;;;;;14.71;56.51;98921.03;5092039;28;20493;-50
2022/04/14 02:43:01;;;;;;;12.73;3.33;;;;;;;14.72;56.30;98920.78;5092216;28;20024;-50
2022/04/14 02:45:27;;;;;;;23.63;4.75;;;;;;;14.72;56.54;98915.50;5092079;28;20020;-51
2022/04/14 02:47:54;;;;;;;11.75;3.67;;;;;;;14.74;56.43;98915.28;5091216;28;20474;-50
2022/04/14 02:50:21;;;;;;;11.93;3.20;;;;;;;14.75;56.78;98916.91;5092328;28;20013;-50
2022/04/14 02:52:51;;;;;;;13.07;4.07;;;;;;;14.74;56.92;98912.66;5092079;28;20031;-50
2022/04/14 02:55:17;;;;;;;18.52;4.07;;;;;;;14.74;56.60;98913.44;5092005;28;20103;-49
2022/04/14 02:57:43;;;;;;;13.48;4.00;;;;;;;14.73;56.69;98914.50;5090670;28;20035;-50
2022/04/14 03:00:10;;;;;;;12.93;3.95;;;;;;;14.69;56.96;98909.84;5091903;28;20328;-51
2022/04/14 03:02:37;;;;;;;11.85;4.35;;;;;;;14.68;56.79;98913.53;5090560;28;20397;-50
2022/04/14 03:05:04;;;;;;;8.63;4.03;;;;;;;14.69;56.93;98912.50;5090587;28;20017;-50
2022/04/14 03:07:30;;;;;;;12.00;3.08;;;;;;;14.68;56.96;98910.91;5091791;28;20115;-50
2022/04/14 03:09:56;;;;;;;23.42;4.60;;;;;;;14.64;57.43;98905.25;5091904;28;20385;-50
2022/04/14 03:12:22;;;;;;;9.02;3.60;;;;;;;14.68;57.22;98908.25;5090465;28;20123;-50
2022/04/14 03:14:48;;;;;;;11.35;3.75;;;;;;;14.66;57.19;98913.75;5091817;28;20016;-50
2022/04/14 03:17:14;;;;;;;11.85;4.15;;;;;;;14.61;57.40;98912.78;5091749;28;20050;-50
2022/04/14 03:19:40;;;;;;;14.45;3.78;;;;;;;14.55;57.54;98904.72;5091807;28;20537;-49
2022/04/14 03:22:05;;;;;;;17.30;4.53;;;;;;;14.51;57.73;98911.47;5091640;28;20035;-50
2022/04/14 03:24:31;;;;;;;11.27;4.25;;;;;;;14.53;57.63;98909.41;5090369;28;20563;-49
2022/04/14 03:26:58;;;;;;;16.35;3.78;;;;;;;14.55;57.83;98917.91;5091724;28;20066;-50
2022/04/14 03:29:23;;;;;;;17.73;3.90;;;;;;;14.64;57.86;98918.44;5091644;28;20024;-50
2022/04/14 03:31:49;;;;;;;15.90;3.88;;;;;;;14.66;57.70;98916.38;5091598;28;20020;-50
2022/04/14 03:34:15;;;;;;;9.43;3.50;;;;;;;14.54;58.01;98918.94;5090055;28;20421;-51
2022/04/14 03:36:41;;;;;;;14.30;3.40;;;;;;;14.49;58.15;98924.06;5091554;28;20543;-50
2022/04/14 03:39:07;;;;;;;15.77;4.15;;;;;;;14.42;58.21;98918.03;5091557;28;20020;-50
2022/04/14 03:41:32;;;;;;;18.90;3.90;;;;;;;14.38;58.46;98917.66;5090122;28;20024;-50
2022/04/14 03:43:58;;;;;;;9.30;3.25;;;;;;;14.34;58.64;98915.69;5090230;28;20051;-51
2022/04/14 03:46:24;;;;;;;13.50;4.28;;;;;;;14.37;58.84;98913.44;5090116;28;20021;-50
2022/04/14 03:48:50;;;;;;;13.88;3.55;;;;;;;14.51;58.82;98914.09;5091542;28;20103;-50
2022/04/14 03:51:16;;;;;;;11.82;3.78;;;;;;;14.54;58.48;98912.84;5091455;28;20023;-50
2022/04/14 03:53:43;;;;;;;15.88;4.30;;;;;;;14.44;58.64;98902.00;5090106;28;20025;-51
2022/04/14 03:56:09;;;;;;;12.00;4.50;;;;;;;14.33;58.55;98908.81;5090063;28;20028;-50
2022/04/14 03:58:35;;;;;;;12.18;4.03;;;;;;;14.14;59.41;98910.59;5090737;28;20027;-50
2022/04/14 04:01:01;;;;;;;14.10;4.07;;;;;;;14.09;59.29;98916.56;5095079;28;20382;-50
2022/04/14 04:03:26;;;;;;;14.15;4.53;;;;;;;14.12;59.70;98915.31;5093785;28;20111;-50
2022/04/14 04:05:52;;;;;;;9.70;3.40;;;;;;;14.16;59.57;98911.19;5095045;28;20149;-50
2022/04/14 04:08:18;;;;;;;17.70;6.97;;;;;;;14.24;59.70;98920.69;5095013;28;20020;-50
2022/04/14 04:10:44;;;;;;;19.30;4.75;;;;;;;14.22;59.50;98920.09;5093671;28;20517;-50
2022/04/14 04:13:11;;;;;;;13.18;3.97;;;;;;;14.09;59.18;98929.75;5094923;28;20035;-50
2022/04/14 04:15:37;;;;;;;15.98;4.97;;;;;;;13.76;58.67;98930.00;5094888;28;20027;-51
2022/04/14 04:18:04;;;;;;;12.88;4.55;;;;;;;13.22;59.25;98926.91;5093564;28;20024;-50
2022/04/14 04:20:31;;;;;;;15.38;4.85;;;;;;;12.73;60.05;98929.13;5093405;28;20020;-49
2022/04/14 04:22:57;;;;;;;14.07;4.65;;;;;;;12.49;60.38;98929.81;5094815;28;20439;-50
2022/04/14 04:25:23;;;;;;;11.52;5.35;;;;;;;12.12;61.29;98932.13;5094688;28;20024;-49
2022/04/14 04:27:48;;;;;;;17.15;5.72;;;;;;;11.84;62.02;98927.03;5093405;28;20024;-50
2022/04/14 04:30:14;;;;;;;14.77;5.47;;;;;;;11.69;62.77;98933.31;5094598;28;20012;-50
2022/04/14 04:32:41;;;;;;;9.23;4.63;;;;;;;11.66;63.11;98936.34;5094590;28;20035;-50
2022/04/14 04:35:07;;;;;;;15.15;5.00;;;;;;;11.56;63.53;98935.91;5092975;28;20054;-50
2022/04/14 04:37:33;;;;;;;13.90;5.00;;;;;;;11.38;63.97;98942.53;5093141;28;20550;-49
2022/04/14 04:39:58;;;;;;;12.13;4.72;;;;;;;11.36;64.76;98944.56;5094427;28;20024;-50
2022/04/14 04:42:24;;;;;;;12.35;4.32;;;;;;;11.42;64.46;98956.09;5094307;28;20020;-49
2022/04/14 04:44:50;;;;;;;16.33;4.38;;;;;;;11.42;64.49;98963.19;5094596;28;20099;-50
2022/04/14 04:47:16;;;;;;;13.05;4.97;;;;;;;11.40;64.84;98963.38;5094262;28;20012;-50
2022/04/14 04:49:43;;;;;;;15.27;4.88;;;;;;;11.37;64.77;98959.34;5094291;28;20582;-49
2022/04/14 04:52:09;;;;;;;20.05;5.53;;;;;;;11.36;64.83;98964.78;5094185;28;20393;-49
2022/04/14 04:54:34;;;;;;;20.98;6.32;;;;;;;11.43;64.55;98963.00;5094183;28;20076;-50
2022/04/14 04:57:00;;;;;;;11.48;5.43;;;;;;;11.50;64.23;98973.50;5094136;28;20490;-50
2022/04/14 04:59:26;;;;;;;18.00;5.72;;;;;;;11.42;63.74;98971.88;5094114;28;20032;-51
2022/04/14 05:01:52;;;;;;;12.90;5.05;;;;;;;11.32;64.11;98963.56;5092597;28;20047;-50
2022/04/14 05:04:18;;;;;;;23.70;6.85;;;;;;;11.27;64.41;98973.84;5093991;28;20016;-49
2022/04/14 05:06:44;;;;;;;19.05;6.10;;;;;;;11.31;64.63;98970.66;5093896;28;20385;-50
2022/04/14 05:09:09;;;;;;;17.52;5.97;;;;;;;11.40;63.86;98974.69;5092539;28;20168;-50
2022/04/14 05:11:35;;;;;;;16.33;5.45;;;;;;;11.52;64.34;98974.94;5092853;28;20028;-49
2022/04/14 05:14:01;;;;;;;15.20;5.40;;;;;;;11.74;64.50;98980.03;5093737;28;20397;-49
2022/04/14 05:16:28;;;;;;;31.02;6.65;;;;;;;12.03;64.25;98978.84;5092364;28;20022;-50
2022/04/14 05:18:53;;;;;;;28.85;6.47;;;;;;;12.39;63.70;98977.63;5093690;28;20028;-51
2022/04/14 05:21:19;;;;;;;24.40;5.85;;;;;;;12.76;62.66;98978.75;5093572;28;20363;-50
2022/04/14 05:23:45;;;;;;;12.85;5.53;;;;;;;13.13;61.58;98978.22;5093617;28;20020;-51
2022/04/14 05:26:11;;;;;;;21.98;6.10;;;;;;;13.39;60.03;98980.75;5092225;28;20110;-50
2022/04/14 05:28:37;;;;;;;19.20;5.90;;;;;;;13.56;59.23;98986.34;5093529;28;20107;-50
2022/04/14 05:31:02;;;;;;;18.38;6.55;;;;;;;13.94;57.74;98990.78;5093424;28;20024;-50
2022/04/14 05:33:28;;;;;;;17.38;5.47;;;;;;;14.27;56.57;98984.41;5091836;28;20509;-50
2022/04/14 05:35:54;;;;;;;24.50;5.85;;;;;;;14.66;56.00;98985.06;5093296;28;20518;-49
2022/04/14 05:38:20;;;;;;;15.98;5.20;;;;;;;15.07;55.15;98985.44;5093358;28;20106;-49
2022/04/14 05:40:46;;;;;;;12.40;6.93;;;;;;;15.56;54.63;98978.28;5093248;28;20058;-50
2022/04/14 05:43:16;;;;;;;26.23;6.28;;;;;;;15.94;53.86;98975.31;5093205;28;20039;-51
2022/04/14 05:45:47;;;;;;;23.65;6.13;;;;;;;16.35;53.42;98975.44;5093179;28;20032;-50
2022/04/14 05:48:14;;;;;;;14.52;5.30;;;;;;;16.76;51.36;98973.66;5093184;28;20032;-50
2022/04/14 05:50:41;;;;;;;17.67;5.07;;;;;;;16.72;51.98;98965.41;5093024;28;20020;-50
2022/04/14 05:53:07;;;;;;;19.35;5.38;;;;;;;17.04;51.95;98970.28;5092979;28;20055;-51
2022/04/14 05:55:33;;;;;;;24.08;6.10;;;;;;;17.45;51.21;98970.28;5092980;28;20636;-51
2022/04/14 05:57:59;;;;;;;14.13;5.65;;;;;;;17.69;51.05;98969.09;5092975;28;20117;-51
2022/04/14 06:00:24;;;;;;;15.18;5.93;;;;;;;17.72;51.05;98971.25;5092890;28;20020;-50
2022/04/14 06:02:50;;;;;;;16.40;5.13;;;;;;;17.78;50.67;98980.91;5091461;28;20481;-51
2022/04/14 06:05:16;;;;;;;13.88;5.30;;;;;;;18.14;49.80;98981.53;5092764;28;20028;-50
2022/04/14 06:07:42;;;;;;;18.40;5.90;;;;;;;18.48;48.79;98980.69;5092739;28;20490;-51
2022/04/14 06:10:08;;;;;;;15.45;5.90;;;;;;;18.51;48.54;98977.53;5092730;28;20032;-50
2022/04/14 06:12:33;;;;;;;16.63;5.57;;;;;;;18.83;47.97;98975.06;5092652;28;20107;-50
2022/04/14 06:14:59;;;;;;;21.85;5.78;;;;;;;19.26;46.21;98975.31;5092646;28;20091;-49
2022/04/14 06:17:25;;;;;;;15.55;5.43;;;;;;;19.52;45.01;98977.16;5091313;28;20425;-49
2022/04/14 06:19:50;;;;;;;25.90;6.00;;;;;;;19.86;44.73;98970.81;5091230;28;20025;-51
2022/04/14 06:22:16;;;;;;;26.85;8.00;;;;;;;20.28;44.05;98970.06;5090921;28;20508;-50
2022/04/14 06:24:42;;;;;;;21.58;5.95;;;;;;;20.59;43.43;98963.09;5091264;28;20028;-51
2022/04/14 06:27:08;;;;;;;12.38;5.40;;;;;;;20.96;42.92;98972.84;5091136;28;20020;-50
2022/04/14 06:29:33;;;;;;;25.58;5.80;;;;;;;21.50;42.22;98969.00;5092414;28;20468;-50
2022/04/14 06:31:59;;;;;;;16.90;5.35;;;;;;;21.97;41.25;98967.94;5092358;28;20039;-50
2022/04/14 06:34:25;;;;;;;24.30;5.55;;;;;;;22.22;40.78;98969.03;5092116;28;20455;-49
2022/04/14 06:36:50;;;;;;;11.13;5.50;;;;;;;22.36;40.44;98963.94;5092265;28;20016;-50
2022/04/14 06:39:16;;;;;;;20.10;6.10;;;;;;;22.43;40.37;98967.13;5090965;28;20114;-51
2022/04/14 06:41:42;;;;;;;11.18;5.82;;;;;;;21.91;40.98;98971.69;5090766;28;20024;-51
2022/04/14 06:44:08;;;;;;;18.67;5.70;;;;;;;21.44;42.09;98976.22;5092152;28;20099;-51
2022/04/14 06:46:34;;;;;;;18.85;7.03;;;;;;;21.18;42.77;98966.50;5092117;28;20020;-51
2022/04/14 06:48:59;;;;;;;12.73;5.47;;;;;;;21.24;42.64;98970.78;5092105;28;20028;-50
2022/04/14 06:51:25;;;;;;;17.80;5.93;;;;;;;21.40;42.35;98975.09;5092087;28;20047;-50
2022/04/14 06:53:51;;;;;;;20.88;6.70;;;;;;;21.65;42.39;98978.91;5090739;28;20039;-51
2022/04/14 06:56:16;;;;;;;14.40;6.15;;;;;;;21.81;41.79;98971.69;5091992;28;20054;-50
2022/04/14 06:58:42;;;;;;;22.45;6.30;;;;;;;22.33;40.75;98979.47;5092030;28;20444;-51
2022/04/14 07:01:09;;;;;;;14.85;5.38;;;;;;;23.33;39.05;98975.06;5091850;28;20027;-51
2022/04/14 07:03:35;;;;;;;21.05;6.43;;;;;;;24.31;37.35;98974.34;5091948;28;20020;-51
2022/04/14 07:06:01;;;;;;;28.77;7.53;;;;;;;24.47;36.34;98966.94;5091904;28;20039;-51
2022/04/14 07:08:27;;;;;;;21.80;6.95;;;;;;;24.28;36.64;98974.91;5090874;28;20028;-51
2022/04/14 07:10:53;;;;;;;20.02;5.80;;;;;;;24.25;36.67;98983.53;5090505;28;20051;-51
2022/04/14 07:13:20;;;;;;;18.35;6.45;;;;;;;24.03;36.82;98974.06;5091791;28;20024;-51
2022/04/14 07:15:46;;;;;;;21.17;6.70;;;;;;;24.97;35.43;98974.69;5091800;28;20378;-51
2022/04/14 07:18:12;;;;;;;21.17;7.68;;;;;;;25.97;33.68;98980.00;5091805;28;20016;-51
2022/04/14 07:20:38;;;;;;;25.40;7.43;;;;;;;27.06;32.64;98980.38;5090335;28;20020;-50
2022/04/14 07:23:05;;;;;;;41.55;9.43;;;;;;;27.53;31.46;98975.63;5091790;28;20073;-50
2022/04/14 07:25:33;;;;;;;26.02;8.60;;;;;;;27.96;30.63;98974.34;5091662;28;20016;-51
2022/04/14 07:28:00;;;;;;;20.80;7.32;;;;;;;28.29;30.37;98985.63;5091634;28;20024;-51
2022/04/14 07:30:27;;;;;;;17.38;7.03;;;;;;;28.61;29.13;98976.41;5091934;28;20469;-51
2022/04/14 07:32:53;;;;;;;18.40;6.32;;;;;;;28.70;29.50;98981.84;5092545;28;20036;-50
2022/04/14 07:35:25;;;;;;;15.57;6.00;;;;;;;28.83;29.15;98980.91;5093350;28;20040;-51
2022/04/14 07:37:51;;;;;;;14.52;6.72;;;;;;;29.19;28.26;98989.91;5095712;28;20032;-51
2022/04/14 07:40:20;;;;;;;22.65;5.70;;;;;;;29.64;28.19;98976.88;5094299;28;20077;-51
2022/04/14 07:42:47;;;;;;;13.27;5.50;;;;;;;30.20;27.05;98976.97;5095452;28;20394;-51
2022/04/14 07:45:15;;;;;;;14.77;6.28;;;;;;;29.50;27.54;98981.69;5094133;28;20024;-51
2022/04/14 07:47:45;;;;;;;12.80;5.68;;;;;;;29.00;28.26;98977.47;5095397;28;20036;-51
2022/04/14 07:50:13;;;;;;;11.40;5.22;;;;;;;29.24;27.87;98982.47;5095397;28;20070;-51
2022/04/14 07:52:55;;;;;;;17.27;5.85;;;;;;;29.61;27.96;98980.22;5094096;28;20459;-51
2022/04/14 07:55:26;;;;;;;12.63;5.30;;;;;;;29.73;27.48;98973.41;5094078;28;20157;-52
2022/04/14 07:57:54;;;;;;;22.63;6.28;;;;;;;30.27;26.96;98976.47;5095371;28;20032;-51
2022/04/14 08:00:20;;;;;;;14.82;5.82;;;;;;;30.70;26.38;98972.78;5095225;28;20020;-51
2022/04/14 08:02:53;;;;;;;16.65;5.82;;;;;;;31.05;25.74;98972.63;5095047;28;20035;-52
2022/04/14 08:05:33;;;;;;;11.45;5.60;;;;;;;31.18;26.03;98971.53;5093956;28;20016;-51
2022/04/14 08:08:04;;;;;;;15.55;5.50;;;;;;;31.36;25.82;98976.84;5095040;28;20397;-51
2022/04/14 08:10:30;;;;;;;14.02;5.00;;;;;;;31.81;24.96;98976.13;5095105;28;20016;-51
2022/04/14 08:12:57;;;;;;;11.80;5.68;;;;;;;32.28;24.75;98975.00;5093615;28;20043;-50
2022/04/14 08:15:23;;;;;;;17.30;5.07;;;;;;;32.66;23.92;98968.50;5094815;28;20016;-51
2022/04/14 08:17:49;;;;;;;27.88;7.10;;;;;;;32.75;24.20;98972.69;5094907;28;20069;-51
2022/04/14 08:20:16;;;;;;;16.35;5.40;;;;;;;32.76;24.08;98968.03;5094803;28;20024;-52
2022/04/14 08:22:54;;;;;;;13.13;5.10;;;;;;;33.18;23.66;98965.84;5093565;28;20058;-51
2022/04/14 08:25:28;;;;;;;11.77;4.43;;;;;;;33.80;23.21;98966.38;5094747;28;20024;-50
2022/04/14 08:27:55;;;;;;;14.38;5.82;;;;;;;34.08;22.52;98965.56;5095129;28;20081;-51
2022/04/14 08:30:22;;;;;;;17.90;5.45;;;;;;;33.79;22.82;98964.03;5094636;28;20383;-50
2022/04/14 08:32:49;;;;;;;12.60;5.00;;;;;;;33.62;22.81;98956.97;5094821;28;20055;-51
2022/04/14 08:35:16;;;;;;;13.57;5.05;;;;;;;33.27;23.17;98959.47;5092927;28;20040;-50
2022/04/14 08:37:43;;;;;;;8.23;4.32;;;;;;;33.27;23.32;98959.47;5094539;28;20028;-51
2022/04/14 08:40:12;;;;;;;17.73;5.40;;;;;;;33.03;23.22;98961.88;5093271;28;20038;-51
2022/04/14 08:42:41;;;;;;;8.95;4.70;;;;;;;33.09;22.88;98962.47;5093018;28;20020;-51
2022/04/14 08:45:10;;;;;;;18.27;5.07;;;;;;;33.37;22.92;98965.19;5091724;28;20485;-51
2022/04/14 08:47:37;;;;;;;11.38;4.82;;;;;;;33.38;22.74;98957.81;5093003;28;20028;-51
2022/04/14 08:50:05;;;;;;;14.30;5.55;;;;;;;33.08;23.34;98951.88;5094241;28;20028;-52
2022/04/14 08:52:34;;;;;;;13.70;5.00;;;;;;;32.58;23.59;98957.41;5092888;28;20032;-51
2022/04/14 08:55:05;;;;;;;12.45;4.45;;;;;;;32.80;23.99;98958.88;5094135;28;20031;-52
2022/04/14 08:57:32;;;;;;;21.98;6.22;;;;;;;33.08;23.61;98946.44;5094207;28;20072;-52
2022/04/14 09:00:00;;;;;;;14.27;5.07;;;;;;;33.20;23.11;98944.53;5092891;28;20024;-51
2022/04/14 09:02:27;;;;;;;14.30;4.35;;;;;;;33.32;23.47;98942.88;5093997;28;20432;-51
2022/04/14 09:04:55;;;;;;;9.77;4.43;;;;;;;33.25;23.37;98948.16;5094216;28;20059;-50
2022/04/14 09:07:21;;;;;;;23.60;5.35;;;;;;;33.42;22.83;98943.19;5093844;28;20073;-52
2022/04/14 09:09:47;;;;;;;9.30;4.70;;;;;;;33.75;22.69;98949.53;5093923;28;20024;-52
2022/04/14 09:12:13;;;;;;;9.85;4.78;;;;;;;34.02;22.00;98937.78;5093792;28;20035;-51
2022/04/14 09:14:40;;;;;;;8.75;3.72;;;;;;;33.99;22.09;98945.88;5092535;28;20129;-52
2022/04/14 09:17:07;;;;;;;13.55;4.47;;;;;;;34.01;22.50;98938.94;5075685;28;20447;-51
2022/04/14 09:19:37;;;;;;;19.75;4.40;;;;;;;34.38;21.96;98938.69;5093623;28;20036;-52
2022/04/14 09:22:08;;;;;;;12.60;4.63;;;;;;;34.86;21.38;98938.63;5093609;28;20024;-51
2022/04/14 09:24:42;;;;;;;10.60;3.67;;;;;;;35.02;21.37;98938.56;5093537;28;20482;-51
2022/04/14 09:27:10;;;;;;;10.13;4.15;;;;;;;34.71;21.50;98945.72;5093561;28;20056;-51
2022/04/14 09:29:47;;;;;;;19.80;5.30;;;;;;;34.44;21.63;98941.16;5093464;28;20436;-52
2022/04/14 09:32:27;;;;;;;9.00;4.55;;;;;;;33.98;22.64;98950.50;5092163;28;20027;-52
2022/04/14 09:34:53;;;;;;;12.13;4.35;;;;;;;34.18;21.98;98945.19;5093202;28;20466;-52
2022/04/14 09:37:20;;;;;;;11.27;4.78;;;;;;;34.29;22.11;98946.25;5093350;28;20027;-51
2022/04/14 09:40:02;;;;;;;11.02;4.82;;;;;;;34.72;21.69;98947.28;5093269;28;20035;-51
2022/04/14 09:42:31;;;;;;;13.07;5.53;;;;;;;35.00;21.47;98930.72;5093452;28;20482;-51
2022/04/14 09:45:17;;;;;;;20.75;4.85;;;;;;;35.55;21.13;98933.38;5093104;28;20032;-51
2022/04/14 09:47:43;;;;;;;11.27;4.43;;;;;;;35.49;20.82;98934.84;5093181;28;20031;-52
2022/04/14 09:50:33;;;;;;;13.02;4.57;;;;;;;35.67;20.86;98932.47;5093153;28;20103;-52
2022/04/14 09:53:05;;;;;;;13.93;4.47;;;;;;;35.58;20.81;98938.13;5093128;28;20074;-51
2022/04/14 09:55:32;;;;;;;10.10;4.80;;;;;;;35.61;20.56;98940.13;5092977;28;20051;-52
2022/04/14 09:58:11;;;;;;;8.60;4.53;;;;;;;35.73;20.81;98936.47;5092511;28;20099;-51
2022/04/14 10:00:44;;;;;;;13.45;4.25;;;;;;;36.02;20.36;98936.19;5092823;28;20028;-52
2022/04/14 10:03:18;;;;;;;11.30;4.47;;;;;;;36.18;20.31;98936.88;5091609;28;20567;-52
2022/04/14 10:05:45;;;;;;;11.95;4.47;;;;;;;36.11;20.39;98940.25;5091440;28;20473;-52
2022/04/14 10:08:13;;;;;;;13.43;4.72;;;;;;;35.37;20.85;98935.78;5092755;28;20081;-52
2022/04/14 10:10:44;;;;;;;6.50;4.53;;;;;;;35.44;21.06;98931.59;5092723;28;20022;-52
2022/04/14 10:13:12;;;;;;;11.88;5.00;;;;;;;35.29;20.97;98930.56;5091469;28;20111;-52
2022/04/14 10:15:41;;;;;;;8.35;4.90;;;;;;;35.06;21.26;98931.25;5091285;28;20490;-52
2022/04/14 10:18:09;;;;;;;14.15;4.40;;;;;;;35.16;21.29;98930.69;5092909;28;20055;-51
2022/04/14 10:20:36;;;;;;;12.02;4.30;;;;;;;35.59;20.64;98931.50;5091164;28;20023;-52
2022/04/14 10:23:03;;;;;;;6.03;3.67;;;;;;;35.74;20.77;98923.63;5092392;28;20039;-51
2022/04/14 10:25:30;;;;;;;8.20;3.90;;;;;;;35.71;20.77;98922.41;5092401;28;20040;-52
2022/04/14 10:27:59;;;;;;;11.18;4.47;;;;;;;36.10;20.64;98924.22;5091208;28;20020;-52
2022/04/14 10:30:26;;;;;;;10.23;4.32;;;;;;;36.20;20.44;98915.44;5092297;28;20032;-52
2022/04/14 10:32:57;;;;;;;10.48;4.25;;;;;;;36.44;20.24;98910.72;5092395;28;20047;-52
2022/04/14 10:35:27;;;;;;;7.53;3.80;;;;;;;36.49;19.84;98910.41;5092138;28;20070;-52
2022/04/14 10:38:20;;;;;;;9.55;3.55;;;;;;;36.45;20.18;98915.81;5092356;28;20099;-52
2022/04/14 10:40:49;;;;;;;6.07;3.67;;;;;;;36.16;20.45;98900.91;5092163;28;20024;-51
2022/04/14 10:43:19;;;;;;;11.75;3.55;;;;;;;34.56;21.50;98909.09;5090895;28;20028;-52
2022/04/14 10:45:51;;;;;;;10.05;3.42;;;;;;;33.87;22.49;98903.19;5090818;28;20028;-50
2022/04/14 10:48:31;;;;;;;13.65;3.60;;;;;;;33.48;22.93;98902.13;5090819;28;20028;-51
2022/04/14 10:51:24;;;;;;;5.70;2.78;;;;;;;33.52;23.14;98898.34;5092136;28;20017;-51
2022/04/14 10:54:06;;;;;;;6.85;2.35;;;;;;;33.96;22.96;98901.06;5092143;28;20089;-51
2022/04/14 10:56:39;;;;;;;5.88;2.92;;;;;;;34.39;22.56;98899.41;5090749;28;20262;-52
2022/04/14 10:59:11;;;;;;;5.93;2.93;;;;;;;34.65;21.81;98903.47;5092120;28;20505;-51
2022/04/14 11:02:02;;;;;;;10.55;2.40;;;;;;;34.73;21.42;98897.06;5091889;28;20036;-52
2022/04/14 11:04:50;;;;;;;10.10;2.67;;;;;;;34.61;21.73;98902.59;5091995;28;20103;-52
2022/04/14 11:07:21;;;;;;;8.73;2.67;;;;;;;34.44;21.88;98905.72;5091923;28;20085;-51
2022/04/14 11:09:52;;;;;;;11.13;3.00;;;;;;;34.57;21.71;98896.25;5089813;28;20106;-51
2022/04/14 11:12:28;;;;;;;8.27;2.10;;;;;;;34.80;22.00;98893.69;5090599;28;20028;-52
2022/04/14 11:14:56;;;;;;;5.18;2.88;;;;;;;35.08;21.37;98903.63;5091934;28;20099;-51
2022/04/14 11:17:32;;;;;;;6.28;2.10;;;;;;;35.24;21.28;98900.84;5091813;28;20024;-51
2022/04/14 11:20:21;;;;;;;8.70;2.35;;;;;;;35.23;21.23;98889.13;5091859;28;20103;-51
2022/04/14 11:23:08;;;;;;;10.55;2.40;;;;;;;35.32;20.84;98888.91;5090493;28;20107;-51
2022/04/14 11:25:49;;;;;;;14.75;2.78;;;;;;;35.13;21.08;98889.66;5091702;28;20028;-51
2022/04/14 11:28:26;;;;;;;9.60;2.58;;;;;;;34.96;21.14;98885.44;5090458;28;20055;-51
2022/04/14 11:31:00;;;;;;;12.95;2.92;;;;;;;34.69;21.34;98884.47;5074108;28;20024;-51